createdAt,value
2019-05-14T00:01:03.327Z,56.20
2019-05-14T00:03:32.356Z,56.80
2019-05-14T00:06:02.275Z,57.10
2019-05-14T00:08:31.665Z,56.40
2019-05-14T00:11:01.469Z,56.00
2019-05-14T00:13:32.187Z,55.90
2019-05-14T00:16:01.601Z,55.50
2019-05-14T00:18:31.501Z,55.40
2019-05-14T00:21:01.891Z,56.30
2019-05-14T00:23:31.894Z,56.10
2019-05-14T00:26:01.894Z,55.70
2019-05-14T00:28:31.708Z,55.90
2019-05-14T00:31:02.987Z,55.50
2019-05-14T00:33:31.848Z,55.60
2019-05-14T00:36:02.160Z,55.70
2019-05-14T00:38:31.677Z,56.10
2019-05-14T00:41:01.984Z,55.50
2019-05-14T00:43:32.304Z,55.70
2019-05-14T00:46:02.049Z,55.70
2019-05-14T00:48:35.896Z,55.30
2019-05-14T00:51:04.956Z,55.30
2019-05-14T00:53:34.038Z,55.30
2019-05-14T00:56:03.216Z,56.20
2019-05-14T00:58:32.442Z,55.10
2019-05-14T01:01:01.770Z,55.60
2019-05-14T01:03:32.367Z,55.30
2019-05-14T01:06:02.994Z,55.00
2019-05-14T01:08:32.385Z,55.80
2019-05-14T01:11:01.864Z,55.40
2019-05-14T01:13:31.387Z,55.50
2019-05-14T01:16:01.668Z,55.50
2019-05-14T01:18:32.245Z,55.50
2019-05-14T01:21:01.678Z,55.80
2019-05-14T01:23:32.255Z,55.60
2019-05-14T01:26:02.304Z,56.20
2019-05-14T01:28:32.264Z,56.00
2019-05-14T01:31:01.850Z,56.30
2019-05-14T01:33:31.891Z,56.50
2019-05-14T01:36:02.078Z,56.30
2019-05-14T01:38:32.511Z,56.60
2019-05-14T01:41:02.068Z,56.70
2019-05-14T01:43:31.613Z,57.10
2019-05-14T01:46:01.907Z,57.50
2019-05-14T01:48:32.113Z,57.50
2019-05-14T01:51:01.498Z,57.40
2019-05-14T01:53:31.381Z,57.40
2019-05-14T01:56:01.535Z,57.80
2019-05-14T01:58:31.293Z,58.30
2019-05-14T02:01:01.989Z,58.40
2019-05-14T02:03:32.343Z,58.30
2019-05-14T02:06:01.690Z,57.80
2019-05-14T02:08:32.159Z,58.30
2019-05-14T02:11:02.006Z,58.30
2019-05-14T02:13:32.238Z,58.30
2019-05-14T02:16:02.072Z,58.30
2019-05-14T02:18:31.548Z,58.70
2019-05-14T02:21:01.590Z,58.70
2019-05-14T02:23:32.075Z,58.60
2019-05-14T02:26:02.507Z,58.90
2019-05-14T02:28:31.950Z,58.80
2019-05-14T02:31:03.316Z,59.10
2019-05-14T02:33:31.744Z,59.20
2019-05-14T02:36:01.010Z,59.20
2019-05-14T02:38:30.329Z,59.50
2019-05-14T02:41:00.250Z,59.20
2019-05-14T02:43:29.888Z,59.00
2019-05-14T02:46:10.872Z,59.00
2019-05-14T02:48:30.218Z,59.30
2019-05-14T02:50:59.883Z,59.60
2019-05-14T02:53:30.063Z,60.00
2019-05-14T02:55:59.719Z,60.00
2019-05-14T02:58:29.838Z,60.10
2019-05-14T03:01:00.350Z,61.40
2019-05-14T03:03:30.317Z,61.10
2019-05-14T03:06:00.713Z,60.60
2019-05-14T03:08:30.708Z,60.80
2019-05-14T03:11:00.529Z,60.70
2019-05-14T03:13:30.101Z,61.50
2019-05-14T03:15:59.729Z,61.00
2019-05-14T03:18:29.802Z,62.40
2019-05-14T03:21:00.873Z,61.80
2019-05-14T03:23:30.441Z,62.00
2019-05-14T03:26:00.762Z,61.70
2019-05-14T03:28:30.714Z,61.70
2019-05-14T03:31:03.277Z,61.00
2019-05-14T03:33:33.403Z,60.80
2019-05-14T03:36:09.105Z,60.90
2019-05-14T03:38:32.649Z,61.20
2019-05-14T03:41:01.822Z,61.20
2019-05-14T03:43:30.899Z,61.60
2019-05-14T03:46:00.156Z,62.00
2019-05-14T03:48:29.933Z,61.70
2019-05-14T03:51:00.102Z,62.10
2019-05-14T03:53:30.108Z,62.50
2019-05-14T03:56:00.780Z,62.10
2019-05-14T03:58:30.635Z,61.80
2019-05-14T04:01:04.092Z,61.60
2019-05-14T04:03:33.261Z,62.70
2019-05-14T04:06:02.719Z,62.30
2019-05-14T04:08:34.736Z,62.30
2019-05-14T04:11:03.912Z,62.40
2019-05-14T04:13:33.465Z,62.00
2019-05-14T04:16:02.916Z,63.10
2019-05-14T04:18:40.093Z,63.40
2019-05-14T04:21:10.117Z,62.90
2019-05-14T04:23:40.369Z,64.70
2019-05-14T04:26:10.996Z,63.70
2019-05-14T04:28:43.006Z,64.00
2019-05-14T04:31:13.034Z,64.40
2019-05-14T04:33:45.738Z,64.00
2019-05-14T04:36:15.542Z,64.40
2019-05-14T04:38:44.850Z,64.50
2019-05-14T04:41:14.149Z,65.40
2019-05-14T04:43:43.234Z,65.60
2019-05-14T04:46:12.270Z,66.00
2019-05-14T04:48:43.192Z,65.60
2019-05-14T04:51:12.345Z,66.20
2019-05-14T04:53:41.484Z,66.60
2019-05-14T04:56:10.434Z,66.90
2019-05-14T04:58:41.068Z,67.30
2019-05-14T05:01:11.006Z,67.60
2019-05-14T05:03:40.422Z,67.00
2019-05-14T05:06:10.078Z,67.40
2019-05-14T05:08:39.799Z,67.60
2019-05-14T05:11:09.720Z,67.80
2019-05-14T05:13:39.810Z,68.20
2019-05-14T05:16:10.124Z,68.40
2019-05-14T05:18:40.265Z,66.80
2019-05-14T05:21:09.470Z,66.70
2019-05-14T05:23:38.885Z,67.20
2019-05-14T05:26:09.151Z,66.20
2019-05-14T05:28:39.236Z,66.00
2019-05-14T05:31:09.341Z,65.00
2019-05-14T05:33:38.723Z,65.90
2019-05-14T05:36:09.398Z,64.30
2019-05-14T05:38:39.613Z,63.50
2019-05-14T05:41:09.184Z,63.20
2019-05-14T05:43:39.325Z,63.70
2019-05-14T05:46:08.929Z,63.80
2019-05-14T05:48:38.982Z,63.50
2019-05-14T05:51:09.200Z,63.10
2019-05-14T05:53:39.421Z,62.60
2019-05-14T05:56:09.095Z,61.40
2019-05-14T05:58:39.717Z,61.30
2019-05-14T06:01:09.792Z,60.90
2019-05-14T06:03:39.610Z,61.00
2019-05-14T06:06:13.635Z,60.50
2019-05-14T06:08:39.491Z,59.80
2019-05-14T06:11:08.654Z,59.30
2019-05-14T06:13:39.143Z,59.20
2019-05-14T06:16:09.455Z,59.40
2019-05-14T06:18:39.516Z,58.30
2019-05-14T06:21:09.283Z,57.50
2019-05-14T06:23:38.828Z,57.10
2019-05-14T06:26:11.536Z,57.20
2019-05-14T06:28:41.005Z,57.10
2019-05-14T06:31:10.311Z,58.00
2019-05-14T06:33:39.756Z,57.50
2019-05-14T06:36:09.330Z,57.20
2019-05-14T06:38:39.008Z,57.50
2019-05-14T06:41:08.413Z,57.20
2019-05-14T06:43:39.232Z,55.80
2019-05-14T06:46:09.143Z,57.00
2019-05-14T06:48:39.601Z,55.50
2019-05-14T06:51:09.195Z,55.00
2019-05-14T06:53:39.271Z,54.90
2019-05-14T06:56:08.997Z,55.20
2019-05-14T06:58:38.950Z,55.10
2019-05-14T07:01:09.662Z,54.00
2019-05-14T07:03:39.123Z,53.40
2019-05-14T07:06:09.201Z,54.00
2019-05-14T07:08:39.236Z,53.60
2019-05-14T07:11:08.738Z,53.00
2019-05-14T07:13:38.476Z,51.90
2019-05-14T07:16:09.029Z,52.70
2019-05-14T07:18:50.703Z,52.90
2019-05-14T07:21:09.513Z,52.60
2019-05-14T07:23:38.783Z,51.90
2019-05-14T07:26:08.584Z,52.10
2019-05-14T07:28:41.932Z,52.50
2019-05-14T07:31:09.770Z,52.30
2019-05-14T07:33:39.341Z,51.90
2019-05-14T07:36:08.856Z,51.60
2019-05-14T07:38:39.154Z,51.20
2019-05-14T07:41:09.451Z,51.00
2019-05-14T07:43:39.506Z,50.90
2019-05-14T07:46:08.993Z,49.40
2019-05-14T07:48:39.176Z,49.10
2019-05-14T07:51:09.121Z,49.10
2019-05-14T07:53:42.150Z,49.10
2019-05-14T07:56:09.639Z,48.40
2019-05-14T07:58:39.017Z,47.80
2019-05-14T08:01:09.488Z,47.80
2019-05-14T08:03:39.040Z,48.00
2019-05-14T08:06:08.489Z,48.50
2019-05-14T08:08:38.650Z,48.10
2019-05-14T08:11:08.606Z,47.30
2019-05-14T08:13:39.017Z,46.90
2019-05-14T08:16:08.926Z,44.70
2019-05-14T08:18:39.671Z,44.30
2019-05-14T08:21:09.301Z,43.00
2019-05-14T08:23:39.159Z,42.60
2019-05-14T08:26:08.661Z,42.30
2019-05-14T08:28:38.256Z,43.10
2019-05-14T08:31:09.399Z,42.60
2019-05-14T08:33:39.686Z,41.90
2019-05-14T08:36:09.156Z,41.90
2019-05-14T08:38:38.545Z,42.00
2019-05-14T08:41:08.419Z,42.00
2019-05-14T08:43:39.627Z,41.40
2019-05-14T08:46:08.453Z,40.90
2019-05-14T08:48:38.990Z,41.00
2019-05-14T08:51:09.183Z,41.90
2019-05-14T08:53:38.890Z,40.50
2019-05-14T08:56:08.804Z,41.30
2019-05-14T08:58:38.859Z,40.00
2019-05-14T09:01:08.370Z,39.90
2019-05-14T09:03:39.222Z,39.60
2019-05-14T09:06:09.350Z,39.40
2019-05-14T09:08:39.305Z,39.30
2019-05-14T09:11:09.977Z,38.10
2019-05-14T09:13:39.418Z,38.30
2019-05-14T09:16:09.270Z,38.30
2019-05-14T09:18:38.861Z,39.30
2019-05-14T09:21:08.610Z,39.70
2019-05-14T09:23:39.107Z,40.70
2019-05-14T09:26:09.738Z,40.00
2019-05-14T09:28:39.520Z,38.30
2019-05-14T09:31:08.805Z,38.90
2019-05-14T09:33:38.946Z,39.50
2019-05-14T09:36:17.982Z,38.00
2019-05-14T09:38:42.098Z,37.30
2019-05-14T09:41:14.967Z,37.40
2019-05-14T09:43:41.006Z,36.30
2019-05-14T09:46:11.161Z,36.10
2019-05-14T09:48:40.206Z,36.60
2019-05-14T09:51:10.642Z,36.50
2019-05-14T09:53:39.810Z,36.40
2019-05-14T09:56:09.312Z,37.50
2019-05-14T09:58:38.940Z,38.20
2019-05-14T10:01:08.733Z,38.90
2019-05-14T10:03:39.029Z,38.10
2019-05-14T10:06:09.778Z,37.00
2019-05-14T10:08:39.403Z,36.90
2019-05-14T10:11:08.827Z,37.40
2019-05-14T10:13:39.241Z,37.50
2019-05-14T10:16:09.526Z,36.50
2019-05-14T10:18:38.823Z,37.30
2019-05-14T10:21:08.662Z,37.00
2019-05-14T10:23:39.016Z,37.00
2019-05-14T10:26:09.120Z,37.50
2019-05-14T10:28:41.323Z,37.20
2019-05-14T10:31:13.227Z,36.50
2019-05-14T10:33:41.043Z,36.30
2019-05-14T10:36:10.233Z,35.90
2019-05-14T10:38:39.248Z,35.90
2019-05-14T10:41:09.035Z,35.90
2019-05-14T10:43:39.151Z,36.60
2019-05-14T10:46:09.202Z,35.90
2019-05-14T10:48:39.533Z,36.60
2019-05-14T10:51:09.846Z,37.60
2019-05-14T10:53:39.799Z,37.50
2019-05-14T10:56:09.806Z,37.20
2019-05-14T10:58:39.460Z,37.40
2019-05-14T11:01:11.231Z,37.40
2019-05-14T11:03:39.573Z,37.20
2019-05-14T11:06:11.545Z,38.00
2019-05-14T11:08:39.422Z,37.30
2019-05-14T11:11:10.674Z,37.30
2019-05-14T11:13:39.552Z,36.90
2019-05-14T11:16:08.887Z,37.00
2019-05-14T11:18:39.832Z,37.60
2019-05-14T11:21:19.805Z,37.50
2019-05-14T11:23:39.479Z,36.80
2019-05-14T11:26:09.231Z,36.70
2019-05-14T11:28:39.456Z,36.40
2019-05-14T11:31:09.351Z,35.30
2019-05-14T11:33:38.836Z,35.50
2019-05-14T11:36:09.297Z,35.90
2019-05-14T11:38:38.763Z,35.70
2019-05-14T11:41:09.543Z,36.10
2019-05-14T11:43:39.714Z,36.40
2019-05-14T11:46:09.290Z,35.80
2019-05-14T11:48:39.355Z,35.80
2019-05-14T11:51:09.163Z,36.70
2019-05-14T11:53:38.696Z,36.30
2019-05-14T11:56:08.705Z,36.10
2019-05-14T11:58:38.287Z,35.30
2019-05-14T12:01:09.194Z,36.30
2019-05-14T12:03:41.253Z,35.80
2019-05-14T12:06:10.583Z,35.40
2019-05-14T12:08:41.949Z,36.00
2019-05-14T12:11:10.454Z,36.40
2019-05-14T12:13:39.698Z,35.20
2019-05-14T12:16:08.858Z,34.90
2019-05-14T12:18:41.647Z,34.90
2019-05-14T12:21:09.099Z,35.00
2019-05-14T12:23:39.343Z,35.40
2019-05-14T12:26:09.532Z,36.70
2019-05-14T12:28:38.973Z,36.90
2019-05-14T12:31:09.242Z,37.10
2019-05-14T12:33:39.741Z,37.90
2019-05-14T12:36:10.292Z,36.70
2019-05-14T12:38:39.526Z,37.60
2019-05-14T12:41:09.311Z,38.30
2019-05-14T12:43:39.613Z,38.40
2019-05-14T12:46:10.443Z,38.20
2019-05-14T12:48:39.990Z,38.50
2019-05-14T12:51:09.349Z,39.10
2019-05-14T12:53:39.424Z,38.70
2019-05-14T12:56:10.083Z,38.90
2019-05-14T12:58:45.285Z,39.30
2019-05-14T13:01:10.065Z,38.50
2019-05-14T13:03:39.138Z,38.90
2019-05-14T13:06:10.008Z,39.50
2019-05-14T13:08:39.104Z,38.60
2019-05-14T13:11:09.605Z,39.60
2019-05-14T13:13:42.872Z,39.80
2019-05-14T13:16:09.870Z,39.00
2019-05-14T13:18:39.016Z,37.10
2019-05-14T13:21:08.232Z,37.00
2019-05-14T13:23:38.284Z,37.20
2019-05-14T13:26:10.527Z,36.80
2019-05-14T13:28:40.123Z,37.10
2019-05-14T13:31:09.609Z,36.30
2019-05-14T13:33:39.312Z,36.90
2019-05-14T13:36:08.525Z,37.20
2019-05-14T13:38:39.661Z,37.10
2019-05-14T13:41:08.800Z,38.00
2019-05-14T13:43:39.156Z,40.20
2019-05-14T13:46:10.409Z,38.50
2019-05-14T13:48:43.324Z,38.10
2019-05-14T13:51:10.466Z,38.40
2019-05-14T13:53:39.634Z,38.40
2019-05-14T13:56:09.227Z,38.30
2019-05-14T13:58:38.579Z,38.10
2019-05-14T14:01:10.024Z,38.10
2019-05-14T14:03:48.078Z,38.30
2019-05-14T14:06:10.447Z,38.00
2019-05-14T14:08:42.383Z,38.00
2019-05-14T14:11:12.764Z,37.80
2019-05-14T14:13:41.463Z,37.60
2019-05-14T14:16:14.743Z,37.70
2019-05-14T14:18:41.503Z,38.50
2019-05-14T14:21:10.944Z,38.20
2019-05-14T14:23:40.159Z,37.20
2019-05-14T14:26:09.695Z,37.00
2019-05-14T14:28:39.720Z,37.40
2019-05-14T14:31:10.938Z,37.40
2019-05-14T14:33:39.769Z,36.90
2019-05-14T14:36:08.984Z,37.10
2019-05-14T14:38:40.208Z,37.30
2019-05-14T14:41:10.089Z,37.30
2019-05-14T14:43:43.755Z,36.00
2019-05-14T14:46:13.978Z,36.00
2019-05-14T14:48:41.136Z,36.10
2019-05-14T14:51:10.284Z,35.90
2019-05-14T14:53:52.304Z,35.40
2019-05-14T14:56:10.042Z,35.90
2019-05-14T14:58:39.564Z,35.70
2019-05-14T15:01:09.039Z,35.60
2019-05-14T15:03:38.399Z,35.50
2019-05-14T15:06:09.682Z,36.40
2019-05-14T15:08:38.891Z,36.90
2019-05-14T15:11:08.917Z,37.90
2019-05-14T15:13:39.091Z,38.00
2019-05-14T15:16:13.597Z,38.50
2019-05-14T15:18:39.392Z,39.40
2019-05-14T15:21:09.668Z,40.10
2019-05-14T15:23:43.212Z,40.40
2019-05-14T15:26:11.970Z,39.30
2019-05-14T15:28:40.476Z,39.60
2019-05-14T15:31:09.554Z,40.10
2019-05-14T15:33:38.632Z,40.10
2019-05-14T15:36:09.084Z,40.00
2019-05-14T15:38:39.689Z,40.50
2019-05-14T15:41:13.311Z,41.60
2019-05-14T15:43:40.110Z,41.80
2019-05-14T15:46:09.241Z,42.00
2019-05-14T15:48:39.402Z,42.00
2019-05-14T15:51:14.285Z,42.60
2019-05-14T15:53:39.866Z,42.70
2019-05-14T15:56:08.996Z,41.40
2019-05-14T15:58:38.964Z,41.20
2019-05-14T16:01:10.041Z,41.80
2019-05-14T16:03:41.616Z,41.80
2019-05-14T16:06:10.060Z,41.50
2019-05-14T16:08:40.248Z,41.70
2019-05-14T16:11:11.430Z,43.40
2019-05-14T16:13:40.404Z,42.90
2019-05-14T16:16:10.709Z,42.40
2019-05-14T16:18:39.988Z,42.00
2019-05-14T16:21:10.653Z,41.10
2019-05-14T16:23:39.974Z,41.50
2019-05-14T16:26:09.197Z,42.00
2019-05-14T16:28:39.660Z,41.90
2019-05-14T16:31:08.960Z,41.60
2019-05-14T16:33:40.466Z,42.10
2019-05-14T16:36:09.525Z,41.80
2019-05-14T16:38:39.509Z,41.40
2019-05-14T16:41:08.967Z,41.80
2019-05-14T16:43:39.915Z,42.50
2019-05-14T16:46:09.527Z,41.50
2019-05-14T16:48:40.548Z,41.80
2019-05-14T16:51:09.622Z,42.20
2019-05-14T16:53:38.946Z,41.90
2019-05-14T16:56:08.306Z,41.30
2019-05-14T16:58:38.640Z,41.30
2019-05-14T17:01:09.555Z,41.70
2019-05-14T17:03:39.691Z,41.90
2019-05-14T17:06:09.221Z,41.40
2019-05-14T17:08:39.422Z,40.80
2019-05-14T17:11:09.131Z,40.70
2019-05-14T17:13:38.389Z,41.30
2019-05-14T17:16:08.619Z,41.70
2019-05-14T17:18:37.923Z,42.00
2019-05-14T17:21:09.259Z,41.80
2019-05-14T17:23:39.320Z,41.80
2019-05-14T17:26:09.114Z,42.10
2019-05-14T17:28:40.482Z,42.30
2019-05-14T17:31:09.126Z,43.00
2019-05-14T17:33:39.488Z,42.80
2019-05-14T17:36:09.618Z,42.10
2019-05-14T17:38:39.305Z,42.80
2019-05-14T17:41:09.393Z,43.10
2019-05-14T17:43:39.506Z,43.20
2019-05-14T17:46:09.816Z,44.60
2019-05-14T17:48:39.687Z,45.80
2019-05-14T17:51:09.370Z,46.20
2019-05-14T17:53:38.887Z,46.30
2019-05-14T17:56:08.573Z,47.10
2019-05-14T17:58:38.488Z,46.50
2019-05-14T18:01:09.167Z,47.50
2019-05-14T18:03:40.096Z,48.70
2019-05-14T18:06:09.478Z,47.80
2019-05-14T18:08:38.609Z,48.10
2019-05-14T18:11:08.841Z,48.50
2019-05-14T18:13:39.158Z,48.80
2019-05-14T18:16:09.220Z,48.60
2019-05-14T18:18:38.434Z,47.00
2019-05-14T18:21:09.303Z,45.40
2019-05-14T18:23:41.667Z,43.90
2019-05-14T18:26:09.447Z,43.70
2019-05-14T18:28:38.917Z,44.00
2019-05-14T18:31:09.476Z,44.10
2019-05-14T18:33:39.998Z,43.90
2019-05-14T18:36:09.465Z,43.90
2019-05-14T18:38:39.142Z,43.60
2019-05-14T18:41:08.686Z,43.90
2019-05-14T18:43:38.528Z,43.90
2019-05-14T18:46:08.627Z,43.20
2019-05-14T18:48:38.034Z,43.50
2019-05-14T18:51:08.997Z,43.60
2019-05-14T18:53:38.414Z,43.30
2019-05-14T18:56:19.513Z,43.50
2019-05-14T18:58:39.035Z,45.40
2019-05-14T19:01:08.532Z,48.50
2019-05-14T19:03:39.652Z,51.50
2019-05-14T19:06:08.502Z,53.20
2019-05-14T19:08:39.471Z,54.20
2019-05-14T19:11:08.458Z,55.60
2019-05-14T19:13:39.033Z,56.30
2019-05-14T19:16:08.718Z,57.00
2019-05-14T19:18:38.590Z,56.80
2019-05-14T19:21:08.772Z,56.10
2019-05-14T19:23:38.591Z,54.80
2019-05-14T19:26:09.588Z,54.70
2019-05-14T19:28:39.041Z,54.40
2019-05-14T19:31:09.190Z,54.60
2019-05-14T19:33:38.714Z,53.00
2019-05-14T19:36:08.807Z,52.60
2019-05-14T19:38:39.256Z,53.40
2019-05-14T19:41:08.965Z,53.90
2019-05-14T19:43:38.129Z,55.00
2019-05-14T19:46:08.746Z,55.50
2019-05-14T19:48:38.118Z,55.90
2019-05-14T19:51:08.311Z,56.00
2019-05-14T19:53:39.236Z,56.10
2019-05-14T19:56:08.598Z,56.60
2019-05-14T19:58:38.310Z,56.30
2019-05-14T20:01:09.092Z,56.30
2019-05-14T20:03:38.758Z,56.30
2019-05-14T20:06:09.056Z,56.80
2019-05-14T20:08:38.704Z,57.10
2019-05-14T20:11:08.038Z,57.20
2019-05-14T20:13:39.102Z,57.10
2019-05-14T20:16:08.657Z,56.60
2019-05-14T20:18:38.392Z,54.70
2019-05-14T20:21:08.673Z,54.20
2019-05-14T20:23:38.745Z,53.80
2019-05-14T20:26:08.368Z,52.30
2019-05-14T20:28:39.068Z,51.60
2019-05-14T20:31:09.919Z,51.30
2019-05-14T20:33:39.198Z,50.70
2019-05-14T20:36:08.445Z,49.90
2019-05-14T20:38:38.774Z,49.00
2019-05-14T20:41:08.661Z,49.00
2019-05-14T20:43:38.786Z,48.70
2019-05-14T20:46:07.837Z,48.10
2019-05-14T20:48:39.039Z,48.70
2019-05-14T20:51:09.028Z,48.50
2019-05-14T20:53:41.059Z,48.70
2019-05-14T20:56:10.117Z,48.50
2019-05-14T20:58:39.357Z,48.90
2019-05-14T21:01:11.373Z,48.90
2019-05-14T21:03:39.943Z,49.00
2019-05-14T21:06:09.313Z,49.60
2019-05-14T21:08:38.417Z,50.10
2019-05-14T21:11:08.244Z,49.60
2019-05-14T21:13:37.444Z,49.80
2019-05-14T21:16:08.369Z,49.60
2019-05-14T21:18:40.915Z,49.70
2019-05-14T21:21:10.899Z,49.80
2019-05-14T21:23:39.129Z,50.10
2019-05-14T21:26:08.627Z,49.80
2019-05-14T21:28:39.340Z,49.60
2019-05-14T21:31:10.520Z,50.40
2019-05-14T21:33:39.479Z,50.50
2019-05-14T21:36:09.500Z,50.50
2019-05-14T21:38:41.023Z,51.00
2019-05-14T21:41:10.028Z,51.20
2019-05-14T21:43:39.382Z,51.90
2019-05-14T21:46:09.130Z,52.50
2019-05-14T21:48:38.801Z,51.90
2019-05-14T21:51:08.799Z,52.40
2019-05-14T21:53:38.646Z,52.80
2019-05-14T21:56:08.870Z,53.90
2019-05-14T21:58:38.685Z,53.90
2019-05-14T22:01:09.937Z,54.50
2019-05-14T22:03:40.243Z,54.80
2019-05-14T22:06:09.521Z,55.00
2019-05-14T22:08:39.387Z,55.40
2019-05-14T22:11:08.759Z,55.60
2019-05-14T22:13:38.269Z,55.60
2019-05-14T22:16:08.410Z,56.50
2019-05-14T22:18:38.829Z,56.60
2019-05-14T22:21:08.969Z,56.90
2019-05-14T22:23:38.790Z,57.60
2019-05-14T22:26:08.060Z,58.30
2019-05-14T22:28:37.085Z,57.90
2019-05-14T22:31:09.087Z,58.40
2019-05-14T22:33:38.194Z,58.50
2019-05-14T22:36:08.691Z,58.60
2019-05-14T22:38:38.955Z,59.00
2019-05-14T22:41:11.278Z,58.90
2019-05-14T22:43:39.124Z,59.30
2019-05-14T22:46:08.495Z,59.70
2019-05-14T22:48:37.608Z,59.80
2019-05-14T22:51:08.662Z,61.10
2019-05-14T22:53:38.892Z,60.80
2019-05-14T22:56:08.380Z,61.30
2019-05-14T22:58:38.280Z,62.50
2019-05-14T23:01:14.611Z,63.00
2019-05-14T23:03:39.685Z,63.30
2019-05-14T23:06:09.164Z,63.80
2019-05-14T23:08:39.183Z,65.20
2019-05-14T23:11:08.723Z,65.60
2019-05-14T23:13:39.244Z,65.70
2019-05-14T23:16:08.665Z,66.40
2019-05-14T23:18:38.155Z,66.50
2019-05-14T23:21:09.157Z,67.60
2019-05-14T23:23:39.248Z,67.60
2019-05-14T23:26:08.853Z,68.00
2019-05-14T23:28:45.280Z,68.70
2019-05-14T23:31:08.629Z,69.80
2019-05-14T23:33:38.885Z,70.00
2019-05-14T23:36:08.734Z,70.00
2019-05-14T23:38:39.456Z,70.80
2019-05-14T23:41:08.883Z,70.10
2019-05-14T23:43:39.080Z,70.10
2019-05-14T23:46:09.453Z,70.40
2019-05-14T23:48:39.382Z,70.40
2019-05-14T23:51:08.512Z,71.60
2019-05-14T23:53:39.269Z,71.60
2019-05-14T23:56:08.750Z,72.40
2019-05-14T23:58:38.016Z,72.10
